sensor_id;sensor_type;location;lat;lon;timestamp;temperature;humidity
66343;DHT22;53144;51.524;5.080;2023-02-18T00:01:51;11.30;91.55
66343;DHT22;53144;51.524;5.080;2023-02-18T00:04:16;11.30;91.69
66343;DHT22;53144;51.524;5.080;2023-02-18T00:06:42;11.33;91.67
66343;DHT22;53144;51.524;5.080;2023-02-18T00:09:09;11.29;91.63
66343;DHT22;53144;51.524;5.080;2023-02-18T00:11:35;11.32;91.74
66343;DHT22;53144;51.524;5.080;2023-02-18T00:14:04;11.32;91.83
66343;DHT22;53144;51.524;5.080;2023-02-18T00:16:30;11.32;91.75
66343;DHT22;53144;51.524;5.080;2023-02-18T00:18:56;11.33;91.84
66343;DHT22;53144;51.524;5.080;2023-02-18T00:21:21;11.32;91.82
66343;DHT22;53144;51.524;5.080;2023-02-18T00:23:47;11.29;91.95
66343;DHT22;53144;51.524;5.080;2023-02-18T00:26:14;11.32;91.89
66343;DHT22;53144;51.524;5.080;2023-02-18T00:28:40;11.32;91.99
66343;DHT22;53144;51.524;5.080;2023-02-18T00:31:06;11.30;92.09
66343;DHT22;53144;51.524;5.080;2023-02-18T00:33:32;11.33;92.16
66343;DHT22;53144;51.524;5.080;2023-02-18T00:36:04;11.37;92.03
66343;DHT22;53144;51.524;5.080;2023-02-18T00:38:30;11.36;92.12
66343;DHT22;53144;51.524;5.080;2023-02-18T00:40:55;11.33;92.22
66343;DHT22;53144;51.524;5.080;2023-02-18T00:43:20;11.29;92.31
66343;DHT22;53144;51.524;5.080;2023-02-18T00:45:46;11.36;92.40
66343;DHT22;53144;51.524;5.080;2023-02-18T00:48:11;11.30;92.43
66343;DHT22;53144;51.524;5.080;2023-02-18T00:50:36;11.32;92.44
66343;DHT22;53144;51.524;5.080;2023-02-18T00:53:02;11.26;92.64
66343;DHT22;53144;51.524;5.080;2023-02-18T00:55:27;11.27;92.65
66343;DHT22;53144;51.524;5.080;2023-02-18T00:57:52;11.32;92.79
66343;DHT22;53144;51.524;5.080;2023-02-18T01:00:18;11.29;92.92
66343;DHT22;53144;51.524;5.080;2023-02-18T01:02:43;11.23;93.15
66343;DHT22;53144;51.524;5.080;2023-02-18T01:05:08;11.26;93.19
66343;DHT22;53144;51.524;5.080;2023-02-18T01:07:34;11.20;93.43
66343;DHT22;53144;51.524;5.080;2023-02-18T01:09:59;11.22;93.59
66343;DHT22;53144;51.524;5.080;2023-02-18T01:12:24;11.18;93.78
66343;DHT22;53144;51.524;5.080;2023-02-18T01:14:50;11.15;93.93
66343;DHT22;53144;51.524;5.080;2023-02-18T01:17:15;11.16;94.16
66343;DHT22;53144;51.524;5.080;2023-02-18T01:19:40;11.15;94.17
66343;DHT22;53144;51.524;5.080;2023-02-18T01:22:06;11.15;94.16
66343;DHT22;53144;51.524;5.080;2023-02-18T01:24:31;11.14;94.21
66343;DHT22;53144;51.524;5.080;2023-02-18T01:26:57;11.11;94.41
66343;DHT22;53144;51.524;5.080;2023-02-18T01:29:22;11.05;94.46
66343;DHT22;53144;51.524;5.080;2023-02-18T01:31:47;11.05;94.64
66343;DHT22;53144;51.524;5.080;2023-02-18T01:34:13;11.05;94.75
66343;DHT22;53144;51.524;5.080;2023-02-18T01:36:39;11.05;94.78
66343;DHT22;53144;51.524;5.080;2023-02-18T01:39:04;11.05;94.65
66343;DHT22;53144;51.524;5.080;2023-02-18T01:41:30;11.06;94.68
66343;DHT22;53144;51.524;5.080;2023-02-18T01:44:12;11.04;94.75
66343;DHT22;53144;51.524;5.080;2023-02-18T01:46:37;11.08;94.77
66343;DHT22;53144;51.524;5.080;2023-02-18T01:49:03;11.05;94.67
66343;DHT22;53144;51.524;5.080;2023-02-18T01:51:38;11.02;94.76
66343;DHT22;53144;51.524;5.080;2023-02-18T01:54:05;11.02;94.87
66343;DHT22;53144;51.524;5.080;2023-02-18T01:56:42;10.96;94.99
66343;DHT22;53144;51.524;5.080;2023-02-18T01:59:12;10.92;95.08
66343;DHT22;53144;51.524;5.080;2023-02-18T02:01:40;10.89;95.19
66343;DHT22;53144;51.524;5.080;2023-02-18T02:04:06;10.92;95.18
66343;DHT22;53144;51.524;5.080;2023-02-18T02:06:32;10.95;95.09
66343;DHT22;53144;51.524;5.080;2023-02-18T02:08:59;10.95;94.89
66343;DHT22;53144;51.524;5.080;2023-02-18T02:14:57;10.89;94.98
66343;DHT22;53144;51.524;5.080;2023-02-18T02:28:56;10.86;95.47
66343;DHT22;53144;51.524;5.080;2023-02-18T02:37:13;10.81;95.80
66343;DHT22;53144;51.524;5.080;2023-02-18T02:45:09;10.71;97.05
66343;DHT22;53144;51.524;5.080;2023-02-18T02:47:44;10.63;97.40
66343;DHT22;53144;51.524;5.080;2023-02-18T02:50:19;10.64;97.70
66343;DHT22;53144;51.524;5.080;2023-02-18T02:52:57;10.58;97.78
66343;DHT22;53144;51.524;5.080;2023-02-18T02:55:23;10.57;97.89
66343;DHT22;53144;51.524;5.080;2023-02-18T02:57:50;10.57;97.96
66343;DHT22;53144;51.524;5.080;2023-02-18T03:00:18;10.54;98.14
66343;DHT22;53144;51.524;5.080;2023-02-18T03:06:06;10.53;98.21
66343;DHT22;53144;51.524;5.080;2023-02-18T03:08:46;10.51;98.42
66343;DHT22;53144;51.524;5.080;2023-02-18T03:11:16;10.53;98.31
66343;DHT22;53144;51.524;5.080;2023-02-18T03:14:04;10.48;98.46
66343;DHT22;53144;51.524;5.080;2023-02-18T03:19:19;10.46;98.46
66343;DHT22;53144;51.524;5.080;2023-02-18T03:21:52;10.44;98.39
66343;DHT22;53144;51.524;5.080;2023-02-18T03:24:27;10.47;98.50
66343;DHT22;53144;51.524;5.080;2023-02-18T03:26:58;10.46;98.42
66343;DHT22;53144;51.524;5.080;2023-02-18T03:29:25;10.44;98.35
66343;DHT22;53144;51.524;5.080;2023-02-18T03:31:54;10.44;98.52
66343;DHT22;53144;51.524;5.080;2023-02-18T03:34:29;10.40;98.44
66343;DHT22;53144;51.524;5.080;2023-02-18T03:36:57;10.43;98.35
66343;DHT22;53144;51.524;5.080;2023-02-18T03:39:26;10.37;98.46
66343;DHT22;53144;51.524;5.080;2023-02-18T03:41:52;10.40;98.43
66343;DHT22;53144;51.524;5.080;2023-02-18T03:44:17;10.38;98.61
66343;DHT22;53144;51.524;5.080;2023-02-18T03:46:43;10.34;98.72
66343;DHT22;53144;51.524;5.080;2023-02-18T03:49:10;10.34;98.74
66343;DHT22;53144;51.524;5.080;2023-02-18T03:51:36;10.36;98.73
66343;DHT22;53144;51.524;5.080;2023-02-18T03:54:01;10.36;98.62
66343;DHT22;53144;51.524;5.080;2023-02-18T03:56:26;10.34;98.64
66343;DHT22;53144;51.524;5.080;2023-02-18T03:58:52;10.37;98.75
66343;DHT22;53144;51.524;5.080;2023-02-18T04:01:17;10.36;98.62
66343;DHT22;53144;51.524;5.080;2023-02-18T04:03:42;10.36;98.58
66343;DHT22;53144;51.524;5.080;2023-02-18T04:06:08;10.36;98.68
66343;DHT22;53144;51.524;5.080;2023-02-18T04:08:33;10.33;98.71
66343;DHT22;53144;51.524;5.080;2023-02-18T04:10:59;10.32;98.72
66343;DHT22;53144;51.524;5.080;2023-02-18T04:13:25;10.29;98.83
66343;DHT22;53144;51.524;5.080;2023-02-18T04:15:51;10.30;98.79
66343;DHT22;53144;51.524;5.080;2023-02-18T04:18:16;10.30;98.90
66343;DHT22;53144;51.524;5.080;2023-02-18T04:20:42;10.27;98.86
66343;DHT22;53144;51.524;5.080;2023-02-18T04:23:10;10.27;98.82
66343;DHT22;53144;51.524;5.080;2023-02-18T04:25:36;10.26;98.87
66343;DHT22;53144;51.524;5.080;2023-02-18T04:28:01;10.26;98.87
66343;DHT22;53144;51.524;5.080;2023-02-18T04:30:26;10.24;99.02
66343;DHT22;53144;51.524;5.080;2023-02-18T04:32:52;10.29;99.00
66343;DHT22;53144;51.524;5.080;2023-02-18T04:35:18;10.29;98.84
66343;DHT22;53144;51.524;5.080;2023-02-18T04:37:43;10.24;98.74
66343;DHT22;53144;51.524;5.080;2023-02-18T04:40:11;10.27;98.78
66343;DHT22;53144;51.524;5.080;2023-02-18T04:42:37;10.23;98.85
66343;DHT22;53144;51.524;5.080;2023-02-18T04:45:03;10.27;98.84
66343;DHT22;53144;51.524;5.080;2023-02-18T04:47:28;10.27;98.75
66343;DHT22;53144;51.524;5.080;2023-02-18T04:49:53;10.24;98.80
66343;DHT22;53144;51.524;5.080;2023-02-18T04:52:19;10.23;98.84
66343;DHT22;53144;51.524;5.080;2023-02-18T04:54:44;10.27;98.82
66343;DHT22;53144;51.524;5.080;2023-02-18T04:57:10;10.20;98.66
66343;DHT22;53144;51.524;5.080;2023-02-18T04:59:35;10.20;98.70
66343;DHT22;53144;51.524;5.080;2023-02-18T05:02:01;10.20;98.73
66343;DHT22;53144;51.524;5.080;2023-02-18T05:04:26;10.20;98.69
66343;DHT22;53144;51.524;5.080;2023-02-18T05:06:52;10.23;98.91
66343;DHT22;53144;51.524;5.080;2023-02-18T05:09:17;10.19;98.84
66343;DHT22;53144;51.524;5.080;2023-02-18T05:11:43;10.19;98.81
66343;DHT22;53144;51.524;5.080;2023-02-18T05:14:11;10.19;98.89
66343;DHT22;53144;51.524;5.080;2023-02-18T05:16:36;10.17;98.87
66343;DHT22;53144;51.524;5.080;2023-02-18T05:19:01;10.19;98.85
66343;DHT22;53144;51.524;5.080;2023-02-18T05:21:27;10.20;98.83
66343;DHT22;53144;51.524;5.080;2023-02-18T05:23:52;10.20;98.87
66343;DHT22;53144;51.524;5.080;2023-02-18T05:26:17;10.16;98.96
66343;DHT22;53144;51.524;5.080;2023-02-18T05:28:43;10.16;98.94
66343;DHT22;53144;51.524;5.080;2023-02-18T05:31:08;10.20;98.90
66343;DHT22;53144;51.524;5.080;2023-02-18T05:33:34;10.17;98.88
66343;DHT22;53144;51.524;5.080;2023-02-18T05:35:59;10.16;98.96
66343;DHT22;53144;51.524;5.080;2023-02-18T05:38:24;10.19;98.96
66343;DHT22;53144;51.524;5.080;2023-02-18T05:40:50;10.19;98.82
66343;DHT22;53144;51.524;5.080;2023-02-18T05:43:15;10.17;98.89
66343;DHT22;53144;51.524;5.080;2023-02-18T05:45:40;10.19;98.71
66343;DHT22;53144;51.524;5.080;2023-02-18T05:48:06;10.20;98.80
66343;DHT22;53144;51.524;5.080;2023-02-18T05:50:31;10.19;98.85
66343;DHT22;53144;51.524;5.080;2023-02-18T05:52:57;10.17;98.72
66343;DHT22;53144;51.524;5.080;2023-02-18T05:55:22;10.19;98.92
66343;DHT22;53144;51.524;5.080;2023-02-18T05:57:48;10.17;98.85
66343;DHT22;53144;51.524;5.080;2023-02-18T06:00:14;10.16;98.96
66343;DHT22;53144;51.524;5.080;2023-02-18T06:02:40;10.14;99.06
66343;DHT22;53144;51.524;5.080;2023-02-18T06:05:05;10.16;99.06
66343;DHT22;53144;51.524;5.080;2023-02-18T06:07:31;10.16;98.92
66343;DHT22;53144;51.524;5.080;2023-02-18T06:09:56;10.13;98.85
66343;DHT22;53144;51.524;5.080;2023-02-18T06:12:22;10.12;99.00
66343;DHT22;53144;51.524;5.080;2023-02-18T06:14:47;10.09;98.95
66343;DHT22;53144;51.524;5.080;2023-02-18T06:17:16;10.09;98.99
66343;DHT22;53144;51.524;5.080;2023-02-18T06:19:43;10.12;98.89
66343;DHT22;53144;51.524;5.080;2023-02-18T06:22:08;10.10;98.67
66343;DHT22;53144;51.524;5.080;2023-02-18T06:24:34;10.12;98.29
66343;DHT22;53144;51.524;5.080;2023-02-18T06:26:59;10.07;98.19
66343;DHT22;53144;51.524;5.080;2023-02-18T06:29:25;10.10;98.10
66343;DHT22;53144;51.524;5.080;2023-02-18T06:31:50;10.06;97.84
66343;DHT22;53144;51.524;5.080;2023-02-18T06:34:16;10.06;98.08
66343;DHT22;53144;51.524;5.080;2023-02-18T06:36:42;10.06;97.92
66343;DHT22;53144;51.524;5.080;2023-02-18T06:39:07;10.02;97.21
66343;DHT22;53144;51.524;5.080;2023-02-18T06:41:33;9.98;97.13
66343;DHT22;53144;51.524;5.080;2023-02-18T06:43:58;9.95;96.92
66343;DHT22;53144;51.524;5.080;2023-02-18T06:46:24;9.95;96.65
66343;DHT22;53144;51.524;5.080;2023-02-18T06:48:49;9.92;96.62
66343;DHT22;53144;51.524;5.080;2023-02-18T06:51:15;9.88;96.55
66343;DHT22;53144;51.524;5.080;2023-02-18T06:53:41;9.82;96.12
66343;DHT22;53144;51.524;5.080;2023-02-18T06:56:06;9.81;95.64
66343;DHT22;53144;51.524;5.080;2023-02-18T06:58:31;9.77;96.04
66343;DHT22;53144;51.524;5.080;2023-02-18T07:00:57;9.77;95.98
66343;DHT22;53144;51.524;5.080;2023-02-18T07:03:22;9.75;96.06
66343;DHT22;53144;51.524;5.080;2023-02-18T07:05:48;9.68;96.22
66343;DHT22;53144;51.524;5.080;2023-02-18T07:08:13;9.68;96.18
66343;DHT22;53144;51.524;5.080;2023-02-18T07:10:39;9.65;96.17
66343;DHT22;53144;51.524;5.080;2023-02-18T07:13:05;9.67;96.18
66343;DHT22;53144;51.524;5.080;2023-02-18T07:15:31;9.68;95.69
66343;DHT22;53144;51.524;5.080;2023-02-18T07:17:56;9.67;95.91
66343;DHT22;53144;51.524;5.080;2023-02-18T07:20:28;9.69;95.34
66343;DHT22;53144;51.524;5.080;2023-02-18T07:22:54;9.71;95.33
66343;DHT22;53144;51.524;5.080;2023-02-18T07:25:20;9.72;94.80
66343;DHT22;53144;51.524;5.080;2023-02-18T07:27:45;9.65;94.98
66343;DHT22;53144;51.524;5.080;2023-02-18T07:30:11;9.71;94.66
66343;DHT22;53144;51.524;5.080;2023-02-18T07:32:39;9.69;94.65
66343;DHT22;53144;51.524;5.080;2023-02-18T07:35:05;9.74;93.90
66343;DHT22;53144;51.524;5.080;2023-02-18T07:37:31;9.75;94.08
66343;DHT22;53144;51.524;5.080;2023-02-18T07:39:57;9.72;94.23
66343;DHT22;53144;51.524;5.080;2023-02-18T07:42:22;9.75;93.45
66343;DHT22;53144;51.524;5.080;2023-02-18T07:44:50;9.78;93.22
66343;DHT22;53144;51.524;5.080;2023-02-18T07:47:17;9.78;92.92
66343;DHT22;53144;51.524;5.080;2023-02-18T07:49:46;9.78;92.83
66343;DHT22;53144;51.524;5.080;2023-02-18T07:52:13;9.79;92.59
66343;DHT22;53144;51.524;5.080;2023-02-18T07:54:41;9.82;92.37
66343;DHT22;53144;51.524;5.080;2023-02-18T07:57:07;9.81;92.90
66343;DHT22;53144;51.524;5.080;2023-02-18T07:59:32;9.82;92.04
66343;DHT22;53144;51.524;5.080;2023-02-18T08:01:58;9.83;92.33
66343;DHT22;53144;51.524;5.080;2023-02-18T08:04:23;9.86;91.96
66343;DHT22;53144;51.524;5.080;2023-02-18T08:06:49;9.88;91.55
66343;DHT22;53144;51.524;5.080;2023-02-18T08:09:14;9.96;91.45
66343;DHT22;53144;51.524;5.080;2023-02-18T08:11:43;9.98;91.48
66343;DHT22;53144;51.524;5.080;2023-02-18T08:14:08;10.00;90.95
66343;DHT22;53144;51.524;5.080;2023-02-18T08:16:34;10.05;91.14
66343;DHT22;53144;51.524;5.080;2023-02-18T08:19:00;10.05;91.10
66343;DHT22;53144;51.524;5.080;2023-02-18T08:21:25;10.06;91.01
66343;DHT22;53144;51.524;5.080;2023-02-18T08:23:51;10.12;90.39
66343;DHT22;53144;51.524;5.080;2023-02-18T08:26:16;10.14;89.90
66343;DHT22;53144;51.524;5.080;2023-02-18T08:28:48;10.19;89.94
66343;DHT22;53144;51.524;5.080;2023-02-18T08:31:18;10.19;89.54
66343;DHT22;53144;51.524;5.080;2023-02-18T08:33:43;10.21;90.33
66343;DHT22;53144;51.524;5.080;2023-02-18T08:36:11;10.24;89.47
66343;DHT22;53144;51.524;5.080;2023-02-18T08:38:39;10.27;89.12
66343;DHT22;53144;51.524;5.080;2023-02-18T08:41:06;10.21;89.38
66343;DHT22;53144;51.524;5.080;2023-02-18T08:43:31;10.20;89.02
66343;DHT22;53144;51.524;5.080;2023-02-18T08:45:57;10.24;89.26
66343;DHT22;53144;51.524;5.080;2023-02-18T08:48:23;10.26;89.19
66343;DHT22;53144;51.524;5.080;2023-02-18T08:50:49;10.20;88.27
66343;DHT22;53144;51.524;5.080;2023-02-18T08:53:17;10.19;88.73
66343;DHT22;53144;51.524;5.080;2023-02-18T08:55:42;10.17;88.62
66343;DHT22;53144;51.524;5.080;2023-02-18T08:58:08;10.17;88.27
66343;DHT22;53144;51.524;5.080;2023-02-18T09:00:33;10.21;87.95
66343;DHT22;53144;51.524;5.080;2023-02-18T09:02:59;10.19;88.55
66343;DHT22;53144;51.524;5.080;2023-02-18T09:05:24;10.20;87.65
66343;DHT22;53144;51.524;5.080;2023-02-18T09:07:50;10.21;87.47
66343;DHT22;53144;51.524;5.080;2023-02-18T09:10:15;10.20;88.00
66343;DHT22;53144;51.524;5.080;2023-02-18T09:12:40;10.24;87.30
66343;DHT22;53144;51.524;5.080;2023-02-18T09:15:06;10.23;87.70
66343;DHT22;53144;51.524;5.080;2023-02-18T09:17:31;10.20;88.05
66343;DHT22;53144;51.524;5.080;2023-02-18T09:19:57;10.19;87.79
66343;DHT22;53144;51.524;5.080;2023-02-18T09:22:22;10.19;87.97
66343;DHT22;53144;51.524;5.080;2023-02-18T09:24:48;10.21;86.76
66343;DHT22;53144;51.524;5.080;2023-02-18T09:27:17;10.20;87.01
66343;DHT22;53144;51.524;5.080;2023-02-18T09:29:42;10.19;87.83
66343;DHT22;53144;51.524;5.080;2023-02-18T09:32:08;10.17;87.46
66343;DHT22;53144;51.524;5.080;2023-02-18T09:34:35;10.17;87.79
66343;DHT22;53144;51.524;5.080;2023-02-18T09:37:01;10.17;87.92
66343;DHT22;53144;51.524;5.080;2023-02-18T09:39:26;10.16;87.92
66343;DHT22;53144;51.524;5.080;2023-02-18T09:41:53;10.19;88.14
66343;DHT22;53144;51.524;5.080;2023-02-18T09:44:34;10.24;87.68
66343;DHT22;53144;51.524;5.080;2023-02-18T09:47:17;10.27;87.02
66343;DHT22;53144;51.524;5.080;2023-02-18T09:49:50;10.29;87.13
66343;DHT22;53144;51.524;5.080;2023-02-18T09:52:27;10.36;86.81
66343;DHT22;53144;51.524;5.080;2023-02-18T09:54:54;10.36;86.79
66343;DHT22;53144;51.524;5.080;2023-02-18T09:57:23;10.38;87.20
66343;DHT22;53144;51.524;5.080;2023-02-18T09:59:56;10.43;87.10
66343;DHT22;53144;51.524;5.080;2023-02-18T10:02:24;10.46;87.37
66343;DHT22;53144;51.524;5.080;2023-02-18T10:04:49;10.47;86.48
66343;DHT22;53144;51.524;5.080;2023-02-18T10:07:30;10.50;86.97
66343;DHT22;53144;51.524;5.080;2023-02-18T10:09:56;10.51;87.42
66343;DHT22;53144;51.524;5.080;2023-02-18T10:12:25;10.51;87.28
66343;DHT22;53144;51.524;5.080;2023-02-18T10:14:53;10.51;87.56
66343;DHT22;53144;51.524;5.080;2023-02-18T10:17:20;10.57;87.59
66343;DHT22;53144;51.524;5.080;2023-02-18T10:19:47;10.61;87.28
66343;DHT22;53144;51.524;5.080;2023-02-18T10:22:15;10.68;86.85
66343;DHT22;53144;51.524;5.080;2023-02-18T10:24:52;10.58;87.28
66343;DHT22;53144;51.524;5.080;2023-02-18T10:27:27;10.64;87.47
66343;DHT22;53144;51.524;5.080;2023-02-18T10:30:16;10.65;87.60
66343;DHT22;53144;51.524;5.080;2023-02-18T10:32:45;10.71;87.58
66343;DHT22;53144;51.524;5.080;2023-02-18T10:35:34;10.68;87.40
66343;DHT22;53144;51.524;5.080;2023-02-18T10:45:37;10.79;87.81
66343;DHT22;53144;51.524;5.080;2023-02-18T10:50:59;10.85;87.25
66343;DHT22;53144;51.524;5.080;2023-02-18T10:53:38;10.91;87.48
66343;DHT22;53144;51.524;5.080;2023-02-18T10:56:05;10.92;87.62
66343;DHT22;53144;51.524;5.080;2023-02-18T10:58:46;10.94;87.63
66343;DHT22;53144;51.524;5.080;2023-02-18T11:01:15;10.96;87.20
66343;DHT22;53144;51.524;5.080;2023-02-18T11:03:50;10.95;87.98
66343;DHT22;53144;51.524;5.080;2023-02-18T11:06:23;10.96;87.55
66343;DHT22;53144;51.524;5.080;2023-02-18T11:08:49;11.01;87.47
66343;DHT22;53144;51.524;5.080;2023-02-18T11:11:26;11.04;87.54
66343;DHT22;53144;51.524;5.080;2023-02-18T11:13:56;11.04;87.39
66343;DHT22;53144;51.524;5.080;2023-02-18T11:16:22;11.06;87.71
66343;DHT22;53144;51.524;5.080;2023-02-18T11:18:48;11.09;87.66
66343;DHT22;53144;51.524;5.080;2023-02-18T11:21:30;11.12;87.46
66343;DHT22;53144;51.524;5.080;2023-02-18T11:23:57;11.14;87.39
66343;DHT22;53144;51.524;5.080;2023-02-18T11:26:32;11.20;87.57
66343;DHT22;53144;51.524;5.080;2023-02-18T11:29:07;11.29;87.26
66343;DHT22;53144;51.524;5.080;2023-02-18T11:31:45;11.32;86.78
66343;DHT22;53144;51.524;5.080;2023-02-18T11:34:28;11.30;86.75
66343;DHT22;53144;51.524;5.080;2023-02-18T11:37:07;11.42;87.08
66343;DHT22;53144;51.524;5.080;2023-02-18T11:39:33;11.44;86.60
66343;DHT22;53144;51.524;5.080;2023-02-18T11:42:02;11.52;86.61
66343;DHT22;53144;51.524;5.080;2023-02-18T11:44:36;11.50;86.93
66343;DHT22;53144;51.524;5.080;2023-02-18T11:50:09;11.52;86.84
66343;DHT22;53144;51.524;5.080;2023-02-18T11:52:44;11.50;87.15
66343;DHT22;53144;51.524;5.080;2023-02-18T11:58:04;11.64;86.49
66343;DHT22;53144;51.524;5.080;2023-02-18T12:00:47;11.74;86.84
66343;DHT22;53144;51.524;5.080;2023-02-18T12:03:29;11.83;85.95
66343;DHT22;53144;51.524;5.080;2023-02-18T12:06:01;11.91;86.01
66343;DHT22;53144;51.524;5.080;2023-02-18T12:08:31;12.10;85.83
66343;DHT22;53144;51.524;5.080;2023-02-18T12:11:29;12.01;85.73
66343;DHT22;53144;51.524;5.080;2023-02-18T12:13:57;12.04;86.00
66343;DHT22;53144;51.524;5.080;2023-02-18T12:22:00;12.10;85.23
66343;DHT22;53144;51.524;5.080;2023-02-18T12:27:29;12.11;85.39
66343;DHT22;53144;51.524;5.080;2023-02-18T12:33:18;12.08;85.49
66343;DHT22;53144;51.524;5.080;2023-02-18T12:41:32;12.04;85.32
66343;DHT22;53144;51.524;5.080;2023-02-18T12:52:12;12.15;85.46
66343;DHT22;53144;51.524;5.080;2023-02-18T13:00:24;12.02;85.92
66343;DHT22;53144;51.524;5.080;2023-02-18T13:14:28;11.95;86.04
66343;DHT22;53144;51.524;5.080;2023-02-18T13:16:57;11.94;86.13
66343;DHT22;53144;51.524;5.080;2023-02-18T13:19:27;12.02;86.18
66343;DHT22;53144;51.524;5.080;2023-02-18T13:21:59;11.98;86.34
66343;DHT22;53144;51.524;5.080;2023-02-18T13:29:34;12.04;86.22
66343;DHT22;53144;51.524;5.080;2023-02-18T13:39:54;12.38;85.28
66343;DHT22;53144;51.524;5.080;2023-02-18T13:42:25;12.36;84.52
66343;DHT22;53144;51.524;5.080;2023-02-18T13:47:42;12.52;84.77
66343;DHT22;53144;51.524;5.080;2023-02-18T13:53:13;12.55;84.60
66343;DHT22;53144;51.524;5.080;2023-02-18T13:55:54;12.57;84.83
66343;DHT22;53144;51.524;5.080;2023-02-18T14:01:03;12.60;84.26
66343;DHT22;53144;51.524;5.080;2023-02-18T14:05:54;12.72;84.20
66343;DHT22;53144;51.524;5.080;2023-02-18T14:08:34;12.80;83.92
66343;DHT22;53144;51.524;5.080;2023-02-18T14:11:24;12.77;84.13
66343;DHT22;53144;51.524;5.080;2023-02-18T14:19:53;12.64;83.82
66343;DHT22;53144;51.524;5.080;2023-02-18T14:22:27;12.53;84.02
66343;DHT22;53144;51.524;5.080;2023-02-18T14:27:34;12.55;84.27
66343;DHT22;53144;51.524;5.080;2023-02-18T14:30:24;12.52;84.73
66343;DHT22;53144;51.524;5.080;2023-02-18T14:32:55;12.55;84.82
66343;DHT22;53144;51.524;5.080;2023-02-18T14:41:24;12.62;84.28
66343;DHT22;53144;51.524;5.080;2023-02-18T14:44:08;12.66;84.13
66343;DHT22;53144;51.524;5.080;2023-02-18T14:47:15;12.64;83.85
66343;DHT22;53144;51.524;5.080;2023-02-18T14:49:43;12.62;84.25
66343;DHT22;53144;51.524;5.080;2023-02-18T14:52:32;12.60;84.53
66343;DHT22;53144;51.524;5.080;2023-02-18T14:55:03;12.60;84.45
66343;DHT22;53144;51.524;5.080;2023-02-18T14:57:44;12.60;84.70
66343;DHT22;53144;51.524;5.080;2023-02-18T15:00:21;12.62;84.61
66343;DHT22;53144;51.524;5.080;2023-02-18T15:02:49;12.55;84.69
66343;DHT22;53144;51.524;5.080;2023-02-18T15:05:24;12.59;84.79
66343;DHT22;53144;51.524;5.080;2023-02-18T15:08:00;12.56;84.62
66343;DHT22;53144;51.524;5.080;2023-02-18T15:10:40;12.60;84.42
66343;DHT22;53144;51.524;5.080;2023-02-18T15:13:23;12.56;83.95
66343;DHT22;53144;51.524;5.080;2023-02-18T15:15:53;12.59;84.58
66343;DHT22;53144;51.524;5.080;2023-02-18T15:20:46;12.62;84.51
66343;DHT22;53144;51.524;5.080;2023-02-18T15:23:12;12.63;84.49
66343;DHT22;53144;51.524;5.080;2023-02-18T15:25:48;12.59;84.64
66343;DHT22;53144;51.524;5.080;2023-02-18T15:28:27;12.52;84.85
66343;DHT22;53144;51.524;5.080;2023-02-18T15:30:56;12.49;84.79
66343;DHT22;53144;51.524;5.080;2023-02-18T15:33:21;12.48;84.73
66343;DHT22;53144;51.524;5.080;2023-02-18T15:35:46;12.50;84.76
66343;DHT22;53144;51.524;5.080;2023-02-18T15:38:18;12.46;84.96
66343;DHT22;53144;51.524;5.080;2023-02-18T15:40:47;12.42;85.25
66343;DHT22;53144;51.524;5.080;2023-02-18T15:43:18;12.41;85.49
66343;DHT22;53144;51.524;5.080;2023-02-18T15:45:46;12.39;85.41
66343;DHT22;53144;51.524;5.080;2023-02-18T15:50:56;12.29;86.11
66343;DHT22;53144;51.524;5.080;2023-02-18T15:53:22;12.25;86.48
66343;DHT22;53144;51.524;5.080;2023-02-18T15:55:51;12.25;86.93
66343;DHT22;53144;51.524;5.080;2023-02-18T15:58:22;12.18;87.45
66343;DHT22;53144;51.524;5.080;2023-02-18T16:00:57;12.04;88.42
66343;DHT22;53144;51.524;5.080;2023-02-18T16:03:28;11.98;89.12
66343;DHT22;53144;51.524;5.080;2023-02-18T16:06:17;11.91;89.28
66343;DHT22;53144;51.524;5.080;2023-02-18T16:11:54;11.85;89.47
66343;DHT22;53144;51.524;5.080;2023-02-18T16:14:39;11.84;89.48
66343;DHT22;53144;51.524;5.080;2023-02-18T16:17:18;11.69;89.66
66343;DHT22;53144;51.524;5.080;2023-02-18T16:23:11;11.70;89.92
66343;DHT22;53144;51.524;5.080;2023-02-18T16:27:36;11.60;90.35
66343;DHT22;53144;51.524;5.080;2023-02-18T16:30:15;11.57;90.72
66343;DHT22;53144;51.524;5.080;2023-02-18T16:32:41;11.56;91.02
66343;DHT22;53144;51.524;5.080;2023-02-18T16:35:07;11.49;91.57
66343;DHT22;53144;51.524;5.080;2023-02-18T16:37:35;11.47;92.53
66343;DHT22;53144;51.524;5.080;2023-02-18T16:40:33;11.26;93.58
66343;DHT22;53144;51.524;5.080;2023-02-18T16:43:04;11.12;94.73
66343;DHT22;53144;51.524;5.080;2023-02-18T16:45:38;11.05;94.98
66343;DHT22;53144;51.524;5.080;2023-02-18T16:48:05;11.01;95.58
66343;DHT22;53144;51.524;5.080;2023-02-18T16:50:32;10.92;95.56
66343;DHT22;53144;51.524;5.080;2023-02-18T16:52:58;10.91;95.88
66343;DHT22;53144;51.524;5.080;2023-02-18T16:55:26;10.86;95.98
66343;DHT22;53144;51.524;5.080;2023-02-18T16:57:55;10.86;96.17
66343;DHT22;53144;51.524;5.080;2023-02-18T17:00:21;10.78;96.19
66343;DHT22;53144;51.524;5.080;2023-02-18T17:02:52;10.79;96.26
66343;DHT22;53144;51.524;5.080;2023-02-18T17:05:21;10.85;96.21
66343;DHT22;53144;51.524;5.080;2023-02-18T17:07:47;10.79;95.96
66343;DHT22;53144;51.524;5.080;2023-02-18T17:10:12;10.81;96.10
66343;DHT22;53144;51.524;5.080;2023-02-18T17:12:37;10.77;95.89
66343;DHT22;53144;51.524;5.080;2023-02-18T17:15:29;10.72;96.16
66343;DHT22;53144;51.524;5.080;2023-02-18T17:17:55;10.72;96.23
66343;DHT22;53144;51.524;5.080;2023-02-18T17:20:24;10.74;96.07
66343;DHT22;53144;51.524;5.080;2023-02-18T17:22:50;10.77;96.18
66343;DHT22;53144;51.524;5.080;2023-02-18T17:25:20;10.74;96.25
66343;DHT22;53144;51.524;5.080;2023-02-18T17:27:45;10.77;96.02
66343;DHT22;53144;51.524;5.080;2023-02-18T17:30:11;10.75;96.01
66343;DHT22;53144;51.524;5.080;2023-02-18T17:32:36;10.75;96.02
66343;DHT22;53144;51.524;5.080;2023-02-18T17:35:02;10.72;95.80
66343;DHT22;53144;51.524;5.080;2023-02-18T17:37:27;10.78;95.88
66343;DHT22;53144;51.524;5.080;2023-02-18T17:39:53;10.77;95.92
66343;DHT22;53144;51.524;5.080;2023-02-18T17:42:18;10.75;96.03
66343;DHT22;53144;51.524;5.080;2023-02-18T17:44:45;10.77;96.01
66343;DHT22;53144;51.524;5.080;2023-02-18T17:47:10;10.74;96.16
66343;DHT22;53144;51.524;5.080;2023-02-18T17:49:38;10.72;96.25
66343;DHT22;53144;51.524;5.080;2023-02-18T17:52:04;10.72;95.84
66343;DHT22;53144;51.524;5.080;2023-02-18T17:54:29;10.77;95.65
66343;DHT22;53144;51.524;5.080;2023-02-18T17:56:54;10.71;95.43
66343;DHT22;53144;51.524;5.080;2023-02-18T17:59:20;10.74;95.06
66343;DHT22;53144;51.524;5.080;2023-02-18T18:01:45;10.74;95.34
66343;DHT22;53144;51.524;5.080;2023-02-18T18:04:15;10.77;94.93
66343;DHT22;53144;51.524;5.080;2023-02-18T18:06:41;10.75;95.04